Time;durP1;ratioP1;P1;durP2;ratioP2;P2;SDS_P1;SDS_P2;PMS_P1;PMS_P2;Temp;Humidity;BMP_temperature;BMP_pressure;BME280_temperature;BME280_humidity;BME280_pressure;Samples;Min_cycle;Max_cycle;Signal;HPM_P1;HPM_P2
2021/08/15 00:00:09;;;;;;;10.80;6.50;;;19.50;88.90;;;;;;4993607;28;20063;-93
2021/08/15 00:02:35;;;;;;;8.93;5.93;;;19.50;89.20;;;;;;5004823;28;20022;-95
2021/08/15 00:05:02;;;;;;;8.93;6.22;;;19.50;89.10;;;;;;5012947;28;20034;-94
2021/08/15 00:07:31;;;;;;;10.27;6.13;;;19.50;89.30;;;;;;5013692;28;20121;-93
2021/08/15 00:09:57;;;;;;;10.52;6.45;;;19.50;89.40;;;;;;4996199;28;20066;-93
2021/08/15 00:12:23;;;;;;;9.55;6.03;;;19.50;89.40;;;;;;5013473;28;20054;-92
2021/08/15 00:14:48;;;;;;;10.45;6.32;;;19.50;89.50;;;;;;5013211;28;20109;-93
2021/08/15 00:17:14;;;;;;;13.15;6.53;;;19.50;89.50;;;;;;4996696;28;20030;-93
2021/08/15 00:19:40;;;;;;;12.00;6.35;;;19.50;89.70;;;;;;5013307;28;20522;-91
2021/08/15 00:22:06;;;;;;;8.77;5.90;;;19.50;89.70;;;;;;5013316;28;20053;-95
2021/08/15 00:24:34;;;;;;;8.70;5.75;;;19.50;89.70;;;;;;5013282;28;20080;-93
2021/08/15 00:27:00;;;;;;;9.85;5.78;;;19.50;89.90;;;;;;4997544;28;20030;-93
2021/08/15 00:29:26;;;;;;;9.60;5.97;;;19.50;90.00;;;;;;5030115;28;20157;-93
2021/08/15 00:31:52;;;;;;;8.55;5.68;;;19.40;90.00;;;;;;5018422;28;20601;-95
2021/08/15 00:34:21;;;;;;;8.65;5.80;;;19.40;90.00;;;;;;5013763;28;20094;-95
2021/08/15 00:36:46;;;;;;;9.50;5.78;;;19.40;90.00;;;;;;5013516;28;20030;-95
2021/08/15 00:39:12;;;;;;;11.75;6.10;;;19.30;90.00;;;;;;5017576;28;20521;-92
2021/08/15 00:41:38;;;;;;;9.25;5.93;;;19.30;90.10;;;;;;5013186;28;20054;-92
2021/08/15 00:44:06;;;;;;;8.60;5.40;;;19.30;90.10;;;;;;5029613;28;20342;-93
2021/08/15 00:46:32;;;;;;;7.97;5.72;;;19.30;90.20;;;;;;5029645;28;20026;-94
2021/08/15 00:48:58;;;;;;;9.75;6.00;;;19.30;90.20;;;;;;5013151;28;20033;-94
2021/08/15 00:51:24;;;;;;;9.48;5.68;;;19.30;90.20;;;;;;5013474;28;20041;-92
2021/08/15 00:53:50;;;;;;;8.30;5.68;;;19.30;90.20;;;;;;5029427;28;20069;-95
2021/08/15 00:56:16;;;;;;;8.05;5.75;;;19.30;90.30;;;;;;5012922;28;20018;-95
2021/08/15 00:58:42;;;;;;;9.43;6.03;;;19.30;90.30;;;;;;5012613;28;20022;-94
2021/08/15 01:01:08;;;;;;;9.95;5.80;;;19.30;90.30;;;;;;5012520;28;20045;-93
2021/08/15 01:03:35;;;;;;;9.75;5.60;;;19.30;90.40;;;;;;5038391;28;20125;-94
2021/08/15 01:06:10;;;;;;;8.63;5.57;;;19.30;90.40;;;;;;5016441;28;20025;-92
2021/08/15 01:08:37;;;;;;;8.40;5.13;;;19.30;90.50;;;;;;5022636;28;20012;-93
2021/08/15 01:11:04;;;;;;;8.32;5.43;;;19.30;90.50;;;;;;5023561;28;20038;-94
2021/08/15 01:13:31;;;;;;;8.63;5.47;;;19.30;90.50;;;;;;5031074;28;20030;-92
2021/08/15 01:15:57;;;;;;;9.85;5.80;;;19.30;90.60;;;;;;5013810;28;20028;-92
2021/08/15 01:18:25;;;;;;;9.73;5.70;;;19.30;90.60;;;;;;5016011;28;20100;-91
2021/08/15 01:21:05;;;;;;;8.73;5.68;;;19.20;90.50;;;;;;5029080;28;20026;-91
2021/08/15 01:23:32;;;;;;;12.32;6.75;;;19.30;90.60;;;;;;5028305;28;20048;-91
2021/08/15 01:26:00;;;;;;;10.90;6.82;;;19.20;90.80;;;;;;5029105;28;20029;-93
2021/08/15 01:28:26;;;;;;;9.35;5.75;;;19.20;90.50;;;;;;4997579;28;20057;-92
2021/08/15 01:30:52;;;;;;;9.10;5.57;;;19.20;90.60;;;;;;5012736;28;20026;-91
2021/08/15 01:33:27;;;;;;;10.10;5.88;;;19.20;90.60;;;;;;5029123;28;20022;-91
2021/08/15 01:35:56;;;;;;;10.23;5.80;;;19.20;90.70;;;;;;5013736;28;20033;-92
2021/08/15 01:38:24;;;;;;;10.93;6.15;;;19.20;90.70;;;;;;5029817;28;20026;-92
2021/08/15 01:40:51;;;;;;;10.73;5.45;;;19.20;90.70;;;;;;5039319;28;20054;-92
2021/08/15 01:43:16;;;;;;;10.45;6.00;;;19.20;90.70;;;;;;5013387;28;20514;-92
2021/08/15 01:45:42;;;;;;;8.82;5.60;;;19.10;90.60;;;;;;5013121;28;20041;-92
2021/08/15 01:48:08;;;;;;;12.02;6.15;;;19.10;90.70;;;;;;5012841;28;20113;-92
2021/08/15 01:50:35;;;;;;;9.73;6.05;;;19.10;90.70;;;;;;5012085;28;20034;-92
2021/08/15 01:53:01;;;;;;;8.75;5.60;;;19.10;90.70;;;;;;5009074;28;20663;-93
2021/08/15 01:55:27;;;;;;;8.57;5.63;;;19.10;90.70;;;;;;5019196;28;20030;-93
2021/08/15 01:57:52;;;;;;;10.20;6.07;;;19.10;90.80;;;;;;5029451;28;20045;-91
2021/08/15 02:00:18;;;;;;;9.23;5.65;;;19.00;90.80;;;;;;5030777;28;20026;-92
2021/08/15 02:02:44;;;;;;;9.73;5.93;;;19.00;90.90;;;;;;4995669;28;20438;-92
2021/08/15 02:05:19;;;;;;;11.38;6.50;;;18.90;90.90;;;;;;5028247;28;20026;-93
2021/08/15 02:07:46;;;;;;;10.52;6.22;;;18.90;90.90;;;;;;5013120;28;20029;-93
2021/08/15 02:10:14;;;;;;;10.05;6.93;;;18.90;91.00;;;;;;5013382;28;20017;-91
2021/08/15 02:12:40;;;;;;;8.85;5.90;;;18.90;91.00;;;;;;5012441;28;20014;-91
2021/08/15 02:15:06;;;;;;;10.63;7.00;;;18.80;91.00;;;;;;5012282;28;20042;-91
2021/08/15 02:17:32;;;;;;;11.18;6.70;;;18.80;91.00;;;;;;5028479;28;20018;-91
2021/08/15 02:19:58;;;;;;;8.93;6.03;;;18.80;91.10;;;;;;5012351;28;20030;-93
2021/08/15 02:22:23;;;;;;;10.05;6.47;;;18.80;91.10;;;;;;5012620;28;20030;-90
2021/08/15 02:24:49;;;;;;;9.95;6.40;;;18.80;91.10;;;;;;5013483;28;20052;-94
2021/08/15 02:27:15;;;;;;;11.55;6.22;;;18.80;91.10;;;;;;5030928;28;20026;-92
2021/08/15 02:29:40;;;;;;;9.25;6.15;;;18.70;91.10;;;;;;5025393;28;20026;-93
2021/08/15 02:32:06;;;;;;;9.25;5.97;;;18.70;91.20;;;;;;5011677;28;20049;-92
2021/08/15 02:34:32;;;;;;;10.50;6.45;;;18.70;91.20;;;;;;5012114;28;20026;-92
2021/08/15 02:36:58;;;;;;;11.45;5.85;;;18.70;91.30;;;;;;5028733;28;20429;-93
2021/08/15 02:39:23;;;;;;;8.88;6.18;;;18.60;91.40;;;;;;5011830;28;20060;-92
2021/08/15 02:41:49;;;;;;;9.07;6.07;;;18.60;91.30;;;;;;5013570;28;20129;-92
2021/08/15 02:44:15;;;;;;;10.20;6.22;;;18.60;91.40;;;;;;5014440;28;20029;-93
2021/08/15 02:46:40;;;;;;;10.20;6.43;;;18.60;91.40;;;;;;4998198;28;20034;-92
2021/08/15 02:49:06;;;;;;;14.15;6.85;;;18.60;91.40;;;;;;4998259;28;20022;-91
2021/08/15 02:51:32;;;;;;;9.68;6.35;;;18.60;91.50;;;;;;5015243;28;20022;-93
2021/08/15 02:53:58;;;;;;;12.43;6.28;;;18.60;91.50;;;;;;4995058;28;20777;-93
2021/08/15 02:56:24;;;;;;;11.38;7.30;;;18.60;91.50;;;;;;5014895;28;20025;-92
2021/08/15 02:58:49;;;;;;;11.57;7.18;;;18.60;91.50;;;;;;5015097;28;20419;-92
2021/08/15 03:01:15;;;;;;;11.07;7.50;;;18.60;91.60;;;;;;5031163;28;20037;-92
2021/08/15 03:03:41;;;;;;;15.10;9.75;;;18.60;91.60;;;;;;5014032;28;20038;-92
2021/08/15 03:06:09;;;;;;;16.17;11.57;;;18.60;91.50;;;;;;5014434;28;20406;-93
2021/08/15 03:08:35;;;;;;;15.55;9.25;;;18.60;91.60;;;;;;4998446;28;20030;-92
2021/08/15 03:11:00;;;;;;;10.85;7.53;;;18.60;91.60;;;;;;5014023;28;20446;-92
2021/08/15 03:13:26;;;;;;;12.15;7.28;;;18.50;91.60;;;;;;5031337;28;20025;-92
2021/08/15 03:15:52;;;;;;;14.55;9.02;;;18.50;91.60;;;;;;5014801;28;20467;-93
2021/08/15 03:18:18;;;;;;;19.77;11.45;;;18.50;91.60;;;;;;5012350;28;20049;-93
2021/08/15 03:20:47;;;;;;;25.23;15.57;;;18.50;91.50;;;;;;5014499;28;20022;-94
2021/08/15 03:23:12;;;;;;;25.27;15.25;;;18.50;91.70;;;;;;5015577;28;20034;-93
2021/08/15 03:25:38;;;;;;;19.92;11.98;;;18.50;91.60;;;;;;4998903;28;20514;-92
2021/08/15 03:28:05;;;;;;;16.60;10.73;;;18.40;91.60;;;;;;5001683;28;20101;-90
2021/08/15 03:30:31;;;;;;;13.77;8.68;;;18.40;91.70;;;;;;5017441;28;20497;-92
2021/08/15 03:32:57;;;;;;;11.50;7.22;;;18.40;91.70;;;;;;4998682;28;20029;-90
2021/08/15 03:35:22;;;;;;;8.23;5.82;;;18.40;91.60;;;;;;5014568;28;20033;-92
2021/08/15 03:37:48;;;;;;;8.98;5.68;;;18.40;91.50;;;;;;4994949;28;20033;-93
2021/08/15 03:40:14;;;;;;;10.05;5.75;;;18.40;91.60;;;;;;5014623;28;20080;-92
2021/08/15 03:42:40;;;;;;;9.75;5.88;;;18.30;91.70;;;;;;5030835;28;20057;-92
2021/08/15 03:45:07;;;;;;;9.38;6.22;;;18.30;91.70;;;;;;5014293;28;20125;-92
2021/08/15 03:47:33;;;;;;;10.45;6.60;;;18.30;91.70;;;;;;5014330;28;20549;-93
2021/08/15 03:50:00;;;;;;;9.75;6.97;;;18.20;91.70;;;;;;5015392;28;20037;-94
2021/08/15 03:52:26;;;;;;;10.65;6.43;;;18.20;91.80;;;;;;5012805;28;20038;-92
2021/08/15 03:54:52;;;;;;;8.55;5.63;;;18.20;91.80;;;;;;4996951;28;20100;-93
2021/08/15 03:57:18;;;;;;;8.68;5.80;;;18.20;92.00;;;;;;4997473;28;20148;-94
2021/08/15 03:59:44;;;;;;;8.10;5.13;;;18.10;91.80;;;;;;4994010;28;20105;-91
2021/08/15 04:02:13;;;;;;;7.93;5.00;;;18.10;91.80;;;;;;5006458;28;20026;-93
2021/08/15 04:04:39;;;;;;;7.43;4.78;;;18.00;91.80;;;;;;5013106;28;20034;-92
2021/08/15 04:07:05;;;;;;;7.55;4.80;;;18.00;91.80;;;;;;5013155;28;20096;-93
2021/08/15 04:09:30;;;;;;;8.52;5.07;;;18.00;91.90;;;;;;4996409;28;20034;-92
2021/08/15 04:11:56;;;;;;;7.68;5.22;;;17.90;92.00;;;;;;5013028;28;20046;-93
2021/08/15 04:14:22;;;;;;;7.47;5.18;;;17.90;92.00;;;;;;5014004;28;20033;-93
2021/08/15 04:16:48;;;;;;;7.82;5.18;;;17.90;92.10;;;;;;4997406;28;20026;-92
2021/08/15 04:19:14;;;;;;;8.15;5.28;;;17.90;92.10;;;;;;5014660;28;20056;-93
2021/08/15 04:21:40;;;;;;;8.00;5.32;;;17.90;92.10;;;;;;5013712;28;20029;-93
2021/08/15 04:24:06;;;;;;;9.13;6.07;;;17.90;92.20;;;;;;5030708;28;20029;-93
2021/08/15 04:26:32;;;;;;;9.13;5.53;;;17.90;92.30;;;;;;4999914;28;20041;-92
2021/08/15 04:28:57;;;;;;;10.55;5.50;;;17.90;92.30;;;;;;5027089;28;20022;-92
2021/08/15 04:31:23;;;;;;;9.93;6.35;;;17.90;92.40;;;;;;5022405;28;20033;-95
2021/08/15 04:33:49;;;;;;;8.20;5.40;;;17.90;92.40;;;;;;5014445;28;20026;-94
2021/08/15 04:36:15;;;;;;;9.88;5.38;;;17.90;92.40;;;;;;5030724;28;20026;-93
2021/08/15 04:38:41;;;;;;;8.98;5.57;;;17.90;92.60;;;;;;5013317;28;20030;-92
2021/08/15 04:41:06;;;;;;;9.02;5.25;;;17.90;92.60;;;;;;5029453;28;20435;-93
2021/08/15 04:43:33;;;;;;;7.50;4.85;;;17.90;92.80;;;;;;5013640;28;20029;-93
2021/08/15 04:46:01;;;;;;;6.43;4.78;;;17.90;92.50;;;;;;5013205;28;20101;-93
2021/08/15 04:48:28;;;;;;;7.93;4.68;;;17.90;92.50;;;;;;5029806;28;20025;-92
2021/08/15 04:50:54;;;;;;;7.68;4.70;;;17.90;92.60;;;;;;5013214;28;20481;-93
2021/08/15 04:53:19;;;;;;;8.00;4.88;;;17.90;92.60;;;;;;5013700;28;20033;-93
2021/08/15 04:55:48;;;;;;;6.88;4.32;;;17.90;92.70;;;;;;4993488;28;20038;-93
2021/08/15 04:58:13;;;;;;;6.57;4.30;;;17.90;92.70;;;;;;5011817;28;20026;-91
2021/08/15 05:00:39;;;;;;;8.27;5.47;;;17.90;92.70;;;;;;4993764;28;20077;-95
2021/08/15 05:03:06;;;;;;;9.60;5.68;;;17.90;92.60;;;;;;5020116;28;20112;-93
2021/08/15 05:05:32;;;;;;;8.77;5.55;;;17.80;92.50;;;;;;4992974;28;20054;-93
2021/08/15 05:07:58;;;;;;;7.28;5.65;;;17.80;92.50;;;;;;5018680;28;20030;-93
2021/08/15 05:10:24;;;;;;;9.77;5.45;;;17.70;92.40;;;;;;5016593;28;20022;-91
2021/08/15 05:12:52;;;;;;;11.80;5.72;;;17.70;92.50;;;;;;5031103;28;20111;-91
2021/08/15 05:15:17;;;;;;;8.20;5.43;;;17.60;92.60;;;;;;5024753;28;20109;-91
2021/08/15 05:17:43;;;;;;;9.88;6.32;;;17.60;92.70;;;;;;5016578;28;20446;-92
2021/08/15 05:20:09;;;;;;;10.77;6.40;;;17.60;92.80;;;;;;4996852;28;20029;-93
2021/08/15 05:22:35;;;;;;;11.10;6.95;;;17.60;92.90;;;;;;5015261;28;20030;-93
2021/08/15 05:25:01;;;;;;;12.27;7.80;;;17.60;92.90;;;;;;5014711;28;20040;-93
2021/08/15 05:27:26;;;;;;;10.52;7.47;;;17.60;93.00;;;;;;5013485;28;20072;-94
2021/08/15 05:29:52;;;;;;;13.00;8.25;;;17.60;93.00;;;;;;5012442;28;20030;-93
2021/08/15 05:32:23;;;;;;;13.27;8.60;;;17.60;93.00;;;;;;5011513;28;20026;-92
2021/08/15 05:34:50;;;;;;;10.60;7.53;;;17.50;93.10;;;;;;5013347;28;20033;-92
2021/08/15 05:37:15;;;;;;;13.10;8.57;;;17.60;93.20;;;;;;5012427;28;20026;-92
2021/08/15 05:39:41;;;;;;;14.05;8.35;;;17.50;93.30;;;;;;5013072;28;20383;-93
2021/08/15 05:42:07;;;;;;;13.88;8.75;;;17.50;93.40;;;;;;5012458;28;20081;-92
2021/08/15 05:44:33;;;;;;;14.45;8.82;;;17.50;93.40;;;;;;4995714;28;20117;-92
2021/08/15 05:46:58;;;;;;;12.63;8.50;;;17.60;93.40;;;;;;4996639;28;20504;-92
2021/08/15 05:49:24;;;;;;;13.82;9.50;;;17.60;93.50;;;;;;5029156;28;20058;-92
2021/08/15 05:51:52;;;;;;;15.50;10.05;;;17.60;93.50;;;;;;4994008;28;20506;-92
2021/08/15 05:54:18;;;;;;;16.63;11.38;;;17.60;93.50;;;;;;4996718;28;20030;-93
2021/08/15 05:56:43;;;;;;;15.48;10.55;;;17.60;93.50;;;;;;5016739;28;20030;-92
2021/08/15 05:59:09;;;;;;;14.50;10.63;;;17.70;93.60;;;;;;5014402;28;20475;-93
2021/08/15 06:01:35;;;;;;;14.57;10.25;;;17.70;93.50;;;;;;4992796;28;20022;-92
2021/08/15 06:04:02;;;;;;;14.25;10.80;;;17.70;93.60;;;;;;4995667;28;20030;-92
2021/08/15 06:06:27;;;;;;;15.32;10.88;;;17.70;93.60;;;;;;5012996;28;20022;-92
2021/08/15 06:08:53;;;;;;;16.52;11.52;;;17.70;93.60;;;;;;5011580;28;20038;-92
2021/08/15 06:11:19;;;;;;;14.60;10.93;;;17.70;93.60;;;;;;4995201;28;20431;-92
2021/08/15 06:13:44;;;;;;;13.68;11.00;;;17.70;93.60;;;;;;5012100;28;20475;-92
2021/08/15 06:16:10;;;;;;;15.05;11.98;;;17.80;93.70;;;;;;5012839;28;20088;-92
2021/08/15 06:18:36;;;;;;;15.43;11.45;;;17.80;93.80;;;;;;5002661;28;20468;-93
2021/08/15 06:21:01;;;;;;;18.40;12.52;;;17.80;94.00;;;;;;4990869;28;20040;-92
2021/08/15 06:23:27;;;;;;;19.17;12.82;;;17.90;94.00;;;;;;4981996;28;20112;-92
2021/08/15 06:25:57;;;;;;;18.65;12.80;;;17.90;94.30;;;;;;5014812;28;20046;-91
2021/08/15 06:28:23;;;;;;;16.60;12.93;;;17.90;94.10;;;;;;5000908;28;20026;-93
2021/08/15 06:30:48;;;;;;;18.90;13.52;;;18.00;94.10;;;;;;5012104;28;20493;-92
2021/08/15 06:33:14;;;;;;;16.92;11.95;;;18.00;94.10;;;;;;4994620;28;20521;-92
2021/08/15 06:35:40;;;;;;;18.05;12.20;;;18.00;94.10;;;;;;4998960;28;20029;-92
2021/08/15 06:38:05;;;;;;;17.42;12.73;;;18.10;94.20;;;;;;4998652;28;20390;-92
2021/08/15 06:40:31;;;;;;;15.93;11.43;;;18.20;94.20;;;;;;5014633;28;20046;-93
2021/08/15 06:43:08;;;;;;;14.18;11.13;;;18.20;94.20;;;;;;5015882;28;20033;-92
2021/08/15 06:45:36;;;;;;;17.63;13.18;;;18.30;94.40;;;;;;5014636;28;20076;-93
2021/08/15 06:48:03;;;;;;;18.23;12.55;;;18.30;94.30;;;;;;5016355;28;20458;-92
2021/08/15 06:50:29;;;;;;;15.73;11.35;;;18.30;94.10;;;;;;5015014;28;20076;-93
2021/08/15 06:52:55;;;;;;;13.80;10.63;;;18.40;94.00;;;;;;4998145;28;20026;-93
2021/08/15 06:55:21;;;;;;;12.57;9.20;;;18.50;94.00;;;;;;5013059;28;20025;-93
2021/08/15 06:57:46;;;;;;;13.35;9.40;;;18.50;93.90;;;;;;5015259;28;20048;-92
2021/08/15 07:00:13;;;;;;;12.85;10.02;;;18.60;93.90;;;;;;5015169;28;20455;-93
2021/08/15 07:02:40;;;;;;;13.80;9.43;;;18.70;93.90;;;;;;5016483;28;20037;-92
2021/08/15 07:05:07;;;;;;;13.77;9.98;;;18.70;93.90;;;;;;5015709;28;20022;-91
2021/08/15 07:07:33;;;;;;;13.82;9.38;;;18.80;93.80;;;;;;5016528;28;20030;-91
2021/08/15 07:09:59;;;;;;;14.82;9.15;;;18.80;93.80;;;;;;4998309;28;20169;-91
2021/08/15 07:12:25;;;;;;;12.35;9.23;;;18.90;93.80;;;;;;4998974;28;20033;-93
2021/08/15 07:14:50;;;;;;;13.63;9.40;;;18.90;93.80;;;;;;5015728;28;20117;-93
2021/08/15 07:17:16;;;;;;;14.43;8.85;;;19.00;93.80;;;;;;4999079;28;20463;-92
2021/08/15 07:19:42;;;;;;;14.60;10.40;;;19.10;93.70;;;;;;5032665;28;20109;-93
2021/08/15 07:22:08;;;;;;;12.55;9.23;;;19.10;93.60;;;;;;5014813;28;20034;-93
2021/08/15 07:24:34;;;;;;;16.52;11.23;;;19.20;93.60;;;;;;5014754;28;20129;-92
2021/08/15 07:26:59;;;;;;;14.15;10.02;;;19.30;93.30;;;;;;5014408;28;20042;-91
2021/08/15 07:29:26;;;;;;;14.75;9.73;;;19.30;93.20;;;;;;5014324;28;20098;-92
2021/08/15 07:31:54;;;;;;;13.18;9.27;;;19.40;93.20;;;;;;5015060;28;20449;-91
2021/08/15 07:34:23;;;;;;;13.57;8.93;;;19.50;93.20;;;;;;5014679;28;20062;-86
2021/08/15 07:36:49;;;;;;;11.60;8.38;;;19.50;93.50;;;;;;5013402;28;20022;-84
2021/08/15 07:39:15;;;;;;;12.55;7.97;;;19.60;93.20;;;;;;5014470;28;20030;-90
2021/08/15 07:41:41;;;;;;;11.57;7.15;;;19.70;93.10;;;;;;5019845;28;20514;-94
2021/08/15 07:44:07;;;;;;;10.55;7.35;;;19.80;93.00;;;;;;5018862;28;20065;-94
2021/08/15 07:46:33;;;;;;;11.05;6.90;;;19.90;92.80;;;;;;5044997;28;20029;-94
2021/08/15 07:48:59;;;;;;;12.35;7.00;;;20.00;92.50;;;;;;5049490;28;20033;-94
2021/08/15 07:51:28;;;;;;;11.18;6.03;;;20.00;91.90;;;;;;5034213;28;20030;-88
2021/08/15 07:53:55;;;;;;;8.88;5.80;;;20.10;91.80;;;;;;5013113;28;20034;-83
2021/08/15 07:56:21;;;;;;;8.57;5.65;;;20.20;91.80;;;;;;5010855;28;20045;-82
2021/08/15 07:58:46;;;;;;;9.85;5.72;;;20.40;91.60;;;;;;5028545;28;20041;-88
2021/08/15 08:01:12;;;;;;;11.88;6.65;;;20.40;91.00;;;;;;5013747;28;20033;-81
2021/08/15 08:03:38;;;;;;;11.82;6.53;;;20.50;90.60;;;;;;5013482;28;20034;-81
2021/08/15 08:06:04;;;;;;;14.27;6.95;;;20.60;90.70;;;;;;5012496;28;20049;-81
2021/08/15 08:08:30;;;;;;;11.77;6.75;;;20.80;90.00;;;;;;5011421;28;20495;-83
2021/08/15 08:10:56;;;;;;;10.30;5.80;;;20.80;88.20;;;;;;5028356;28;20474;-82
2021/08/15 08:13:23;;;;;;;11.07;5.80;;;21.00;88.20;;;;;;5014465;28;20053;-83
2021/08/15 08:15:49;;;;;;;11.52;6.35;;;21.10;88.10;;;;;;5011627;28;20037;-82
2021/08/15 08:18:15;;;;;;;10.35;5.60;;;21.20;85.70;;;;;;5010373;28;20141;-83
2021/08/15 08:20:41;;;;;;;12.38;6.20;;;21.30;85.70;;;;;;5029164;28;20022;-83
2021/08/15 08:23:12;;;;;;;12.68;6.25;;;21.40;85.10;;;;;;5029104;28;20021;-81
2021/08/15 08:25:40;;;;;;;10.32;6.05;;;21.50;84.70;;;;;;5012776;28;20022;-82
2021/08/15 08:28:06;;;;;;;9.70;5.88;;;21.50;85.10;;;;;;5012656;28;20034;-81
2021/08/15 08:30:32;;;;;;;8.95;4.97;;;21.60;85.20;;;;;;5008456;28;20555;-81
2021/08/15 08:32:58;;;;;;;9.93;5.35;;;21.60;85.20;;;;;;5012056;28;20042;-81
2021/08/15 08:35:24;;;;;;;8.60;5.20;;;21.70;85.00;;;;;;5011328;28;20044;-82
2021/08/15 08:37:49;;;;;;;8.85;4.80;;;21.80;84.70;;;;;;5010946;28;20034;-81
2021/08/15 08:40:16;;;;;;;8.27;4.78;;;21.90;84.80;;;;;;5011329;28;20482;-81
2021/08/15 08:42:43;;;;;;;7.80;4.07;;;22.00;85.00;;;;;;5010188;28;20108;-82
2021/08/15 08:45:10;;;;;;;6.28;4.03;;;22.10;85.10;;;;;;5011737;28;20034;-81
2021/08/15 08:47:36;;;;;;;9.05;4.75;;;22.10;85.20;;;;;;5011208;28;20045;-81
2021/08/15 08:50:06;;;;;;;12.65;5.65;;;22.20;83.60;;;;;;5012868;28;20410;-81
2021/08/15 08:52:31;;;;;;;9.88;4.38;;;22.30;82.90;;;;;;5011600;28;20069;-82
2021/08/15 08:54:59;;;;;;;9.63;5.05;;;22.30;82.50;;;;;;5007906;28;20065;-80
2021/08/15 08:57:25;;;;;;;9.55;5.85;;;22.40;81.70;;;;;;4994355;28;20050;-81
2021/08/15 08:59:51;;;;;;;8.65;5.28;;;22.40;81.70;;;;;;5010830;28;20463;-82
2021/08/15 09:02:16;;;;;;;9.90;6.03;;;22.50;81.90;;;;;;5010197;28;20049;-82
2021/08/15 09:04:43;;;;;;;11.25;5.95;;;22.60;81.60;;;;;;5010077;28;20564;-83
2021/08/15 09:07:10;;;;;;;10.07;5.82;;;22.60;81.80;;;;;;5011334;28;20034;-81
2021/08/15 09:09:38;;;;;;;10.38;5.53;;;22.70;82.20;;;;;;5011451;28;20394;-80
2021/08/15 09:12:04;;;;;;;12.80;6.05;;;22.70;82.00;;;;;;5011908;28;20022;-82
2021/08/15 09:14:33;;;;;;;12.15;6.40;;;22.80;82.00;;;;;;5012823;28;20088;-92
2021/08/15 09:17:01;;;;;;;9.43;5.82;;;22.80;81.60;;;;;;5012654;28;20037;-88
2021/08/15 09:19:42;;;;;;;10.95;6.50;;;22.90;82.30;;;;;;5005539;28;20383;-91
2021/08/15 09:22:21;;;;;;;;;;;22.90;82.10;;;;;;5009787;28;20034;-91
2021/08/15 09:25:02;;;;;;;14.15;6.75;;;23.00;80.80;;;;;;5018319;28;19924;-94
2021/08/15 09:27:49;;;;;;;;;;;23.00;80.50;;;;;;5032353;28;20037;-96
2021/08/15 09:30:17;;;;;;;11.30;6.03;;;23.10;81.70;;;;;;5047454;23;19920;-82
2021/08/15 09:32:59;;;;;;;11.38;6.38;;;23.10;81.60;;;;;;5050728;28;20452;-82
2021/08/15 09:35:34;;;;;;;9.38;5.75;;;23.20;81.50;;;;;;5034040;28;20466;-82
2021/08/15 09:38:16;;;;;;;11.05;5.32;;;23.30;80.60;;;;;;5047686;28;20493;-82
2021/08/15 09:40:50;;;;;;;8.93;4.18;;;23.40;78.80;;;;;;5037949;28;20497;-83
2021/08/15 09:43:24;;;;;;;7.65;3.83;;;23.50;78.00;;;;;;5025935;28;20033;-82
2021/08/15 09:45:58;;;;;;;10.43;4.32;;;23.50;77.00;;;;;;5022327;28;20056;-82
2021/08/15 09:48:36;;;;;;;7.82;3.65;;;23.60;76.50;;;;;;5016320;28;20054;-82
2021/08/15 09:51:17;;;;;;;11.25;4.25;;;23.60;75.60;;;;;;5027639;28;20025;-83
2021/08/15 09:53:46;;;;;;;10.75;4.07;;;23.70;74.80;;;;;;5055917;28;20024;-83
2021/08/15 09:56:12;;;;;;;6.85;3.72;;;23.80;75.40;;;;;;5055959;28;20490;-82
2021/08/15 09:58:38;;;;;;;7.07;3.78;;;23.90;74.00;;;;;;5021904;28;20029;-83
2021/08/15 10:01:29;;;;;;;9.85;4.22;;;23.90;74.20;;;;;;5038072;28;20496;-83
2021/08/15 10:03:55;;;;;;;9.18;4.40;;;24.00;73.60;;;;;;5015697;28;20104;-83
2021/08/15 10:06:21;;;;;;;6.50;3.90;;;24.10;72.50;;;;;;5020991;28;20482;-83
2021/08/15 10:08:48;;;;;;;6.78;3.50;;;24.10;73.00;;;;;;5030055;28;20033;-83
2021/08/15 10:11:13;;;;;;;7.03;3.63;;;24.20;73.10;;;;;;5026957;28;20026;-83
2021/08/15 10:13:39;;;;;;;7.10;3.67;;;24.20;73.60;;;;;;5001685;28;20375;-83
2021/08/15 10:16:08;;;;;;;8.30;3.55;;;24.30;70.30;;;;;;5020175;28;20517;-83
2021/08/15 10:18:39;;;;;;;7.57;3.60;;;24.30;71.50;;;;;;5026655;28;20033;-82
2021/08/15 10:21:11;;;;;;;6.70;3.38;;;24.40;71.90;;;;;;5055627;28;20021;-83
2021/08/15 10:23:41;;;;;;;6.65;3.22;;;24.50;71.80;;;;;;5037246;28;20378;-82
2021/08/15 10:26:25;;;;;;;6.78;3.30;;;24.50;70.50;;;;;;5037624;28;20064;-83
2021/08/15 10:28:51;;;;;;;4.95;2.70;;;24.60;70.80;;;;;;5052537;28;20037;-81
2021/08/15 10:31:17;;;;;;;4.97;2.72;;;24.60;71.00;;;;;;5037435;28;20076;-81
2021/08/15 10:33:57;;;;;;;3.53;2.22;;;24.80;71.40;;;;;;5020731;28;20033;-81
2021/08/15 10:36:39;;;;;;;4.70;2.42;;;24.90;70.90;;;;;;5049404;23;20056;-85
2021/08/15 10:39:36;;;;;;;5.72;2.55;;;25.00;70.00;;;;;;5063036;28;20016;-85
2021/08/15 10:42:02;;;;;;;5.75;2.67;;;25.10;70.20;;;;;;5070676;28;20063;-86
2021/08/15 10:44:27;;;;;;;5.03;2.67;;;25.10;69.70;;;;;;5050831;28;20474;-88
2021/08/15 10:47:12;;;;;;;4.82;2.50;;;25.20;70.40;;;;;;5053958;28;20025;-88
2021/08/15 10:50:02;;;;;;;6.22;2.75;;;25.30;71.50;;;;;;5071624;28;20100;-88
2021/08/15 10:52:39;;;;;;;7.97;2.78;;;25.40;70.80;;;;;;5068757;28;20020;-88
2021/08/15 10:55:11;;;;;;;4.90;2.60;;;25.50;72.10;;;;;;5058073;28;20473;-87
2021/08/15 10:57:45;;;;;;;6.07;2.75;;;25.60;71.10;;;;;;5077828;28;20033;-88
2021/08/15 11:00:29;;;;;;;4.60;2.42;;;25.60;71.30;;;;;;5073162;28;20458;-88
2021/08/15 11:02:59;;;;;;;6.30;2.90;;;25.70;72.00;;;;;;5071755;28;20021;-88
2021/08/15 11:05:40;;;;;;;6.25;2.40;;;25.80;72.10;;;;;;5069296;28;20066;-87
2021/08/15 11:08:35;;;;;;;4.07;2.40;;;25.90;72.10;;;;;;5071336;28;20020;-87
2021/08/15 11:11:06;;;;;;;5.03;2.40;;;26.00;70.80;;;;;;5075743;28;20082;-87
2021/08/15 11:17:14;;;;;;;5.80;2.60;;;26.20;70.40;;;;;;5056570;28;20065;-86
2021/08/15 11:19:41;;;;;;;5.07;2.15;;;26.30;70.10;;;;;;5063715;28;20020;-86
2021/08/15 11:22:21;;;;;;;3.55;2.28;;;26.30;69.20;;;;;;5065703;28;20027;-87
2021/08/15 11:25:04;;;;;;;5.00;2.47;;;26.30;68.60;;;;;;5089736;28;20025;-87
2021/08/15 11:27:32;;;;;;;5.43;2.47;;;26.40;68.60;;;;;;5063344;28;20053;-86
2021/08/15 11:30:09;;;;;;;5.22;2.72;;;26.40;68.90;;;;;;5077454;28;20029;-87
2021/08/15 11:32:37;;;;;;;5.20;2.50;;;26.40;67.90;;;;;;5070303;28;20025;-86
2021/08/15 11:35:10;;;;;;;4.38;2.45;;;26.50;68.50;;;;;;5078672;28;20037;-87
2021/08/15 11:37:47;;;;;;;4.60;2.58;;;26.50;69.00;;;;;;5090178;28;20048;-86
2021/08/15 11:40:52;;;;;;;5.95;2.75;;;26.50;68.50;;;;;;5068161;28;20493;-87
2021/08/15 11:43:24;;;;;;;5.63;2.35;;;26.60;68.20;;;;;;5063129;28;20032;-86
2021/08/15 11:45:55;;;;;;;5.78;2.53;;;26.60;69.60;;;;;;5073222;28;20021;-86
2021/08/15 11:48:24;;;;;;;3.78;2.33;;;26.70;70.20;;;;;;5074587;28;20023;-86
2021/08/15 11:50:52;;;;;;;3.40;2.00;;;26.80;70.40;;;;;;5079149;28;20054;-87
2021/08/15 11:53:47;;;;;;;4.70;2.50;;;26.80;70.70;;;;;;5076619;28;20021;-86
2021/08/15 11:56:19;;;;;;;4.07;2.30;;;26.90;70.40;;;;;;5087529;28;20032;-87
2021/08/15 11:58:46;;;;;;;4.85;2.53;;;27.00;69.90;;;;;;5065936;28;20113;-84
2021/08/15 12:01:14;;;;;;;4.70;2.58;;;27.10;70.40;;;;;;5053678;28;20021;-84
2021/08/15 12:03:40;;;;;;;4.63;2.40;;;27.10;69.60;;;;;;5065258;28;20025;-84
2021/08/15 12:06:07;;;;;;;5.53;2.88;;;27.20;69.90;;;;;;5055043;28;20028;-84
2021/08/15 12:08:41;;;;;;;6.18;2.67;;;27.20;69.70;;;;;;5053815;28;20074;-85
2021/08/15 12:11:30;;;;;;;4.53;2.42;;;27.30;69.70;;;;;;5066898;28;20024;-84
2021/08/15 12:14:08;;;;;;;4.72;2.60;;;27.30;69.10;;;;;;5068606;28;20020;-85
2021/08/15 12:16:35;;;;;;;3.63;2.10;;;27.40;69.40;;;;;;5087775;28;20028;-85
2021/08/15 12:19:01;;;;;;;4.57;2.30;;;27.50;69.20;;;;;;5077767;28;20070;-85
2021/08/15 12:21:35;;;;;;;3.25;2.08;;;27.50;69.10;;;;;;5069875;28;20094;-86
2021/08/15 12:24:09;;;;;;;3.55;2.10;;;27.60;68.40;;;;;;5069731;28;20543;-85
2021/08/15 12:26:38;;;;;;;3.70;2.03;;;27.60;67.80;;;;;;5076193;28;20073;-84
2021/08/15 12:29:07;;;;;;;3.97;2.30;;;27.60;68.00;;;;;;5063948;28;20021;-84
2021/08/15 12:31:35;;;;;;;4.30;1.95;;;27.70;66.50;;;;;;5067853;28;20012;-84
2021/08/15 12:34:10;;;;;;;3.58;2.20;;;27.70;67.00;;;;;;5060231;28;20067;-84
2021/08/15 12:36:41;;;;;;;3.50;2.22;;;27.70;67.10;;;;;;5089103;28;20052;-83
2021/08/15 12:39:06;;;;;;;;;;;27.70;66.70;;;;;;5073352;28;20485;-86
2021/08/15 12:41:51;;;;;;;3.55;2.10;;;27.70;66.10;;;;;;5073249;28;19911;-86
2021/08/15 12:44:19;;;;;;;3.75;2.20;;;27.70;65.40;;;;;;5074957;28;20032;-85
2021/08/15 12:47:00;;;;;;;5.75;2.40;;;27.60;66.50;;;;;;5064608;28;20021;-85
2021/08/15 12:49:32;;;;;;;5.75;2.33;;;27.70;66.20;;;;;;5073918;28;20077;-86
2021/08/15 12:52:21;;;;;;;4.90;2.20;;;27.70;66.70;;;;;;5072269;28;20504;-87